createdAt,value
2023-03-07T00:01:51.880Z,99253.81
2023-03-07T00:06:56.128Z,99243.41
2023-03-07T00:11:58.803Z,99260.94
2023-03-07T00:17:01.669Z,99257.31
2023-03-07T00:22:05.048Z,99270.63
2023-03-07T00:27:09.066Z,99238.44
2023-03-07T00:32:11.736Z,99268.63
2023-03-07T00:37:15.634Z,99267.75
2023-03-07T00:42:18.444Z,99271.78
2023-03-07T00:47:21.207Z,99280.47
2023-03-07T00:52:23.953Z,99267.47
2023-03-07T00:57:26.811Z,99278.03
2023-03-07T01:02:29.467Z,99277.03
2023-03-07T01:07:32.172Z,99288.28
2023-03-07T01:12:35.289Z,99253.22
2023-03-07T01:17:38.385Z,99281.06
2023-03-07T01:22:42.370Z,99290.47
2023-03-07T01:27:45.045Z,99277.63
2023-03-07T01:32:49.335Z,99290.53
2023-03-07T01:37:53.450Z,99284.13
2023-03-07T01:43:34.585Z,99299.72
2023-03-07T01:48:42.214Z,99302.94
2023-03-07T01:53:45.377Z,99301.38
2023-03-07T01:58:49.425Z,99309.56
2023-03-07T02:03:58.322Z,99316.69
2023-03-07T02:09:01.286Z,99333.41
2023-03-07T02:14:04.037Z,99343.31
2023-03-07T02:19:25.635Z,99323.25
2023-03-07T02:24:43.109Z,99313.44
2023-03-07T02:29:45.846Z,99341.41
2023-03-07T02:34:49.350Z,99339.44
2023-03-07T02:39:57.134Z,99373.63
2023-03-07T02:45:01.825Z,99368.22
2023-03-07T02:50:08.885Z,99375.75
2023-03-07T02:55:14.453Z,99386.91
2023-03-07T03:00:23.806Z,99392.44
2023-03-07T03:05:26.723Z,99400.78
2023-03-07T03:10:30.462Z,99410.13
2023-03-07T03:15:35.296Z,99405.94
2023-03-07T03:20:44.935Z,99407.94
2023-03-07T03:25:58.345Z,99417.41
2023-03-07T03:31:07.533Z,99428.66
2023-03-07T03:36:13.869Z,99416.81
2023-03-07T03:41:17.318Z,99410.63
2023-03-07T03:46:21.914Z,99421.72
2023-03-07T03:51:25.282Z,99418.56
2023-03-07T03:56:30.187Z,99418.56
2023-03-07T04:01:33.883Z,99408.69
2023-03-07T04:06:36.857Z,99419.94
2023-03-07T04:11:39.891Z,99443.28
2023-03-07T04:16:43.071Z,99432.44
2023-03-07T04:21:45.951Z,99433.09
2023-03-07T04:26:51.642Z,99438.25
2023-03-07T04:31:54.510Z,99433.38
2023-03-07T04:36:57.736Z,99431.44
2023-03-07T04:42:00.559Z,99439.00
2023-03-07T04:47:09.402Z,99454.59
2023-03-07T04:52:13.983Z,99458.28
2023-03-07T04:57:17.077Z,99461.47
2023-03-07T05:02:20.054Z,99458.53
2023-03-07T05:07:24.967Z,99461.34
2023-03-07T05:12:27.800Z,99461.47
2023-03-07T05:17:31.822Z,99472.09
2023-03-07T05:22:34.553Z,99481.56
2023-03-07T05:27:37.310Z,99470.97
2023-03-07T05:32:40.757Z,99455.03
2023-03-07T05:37:45.178Z,99486.88
2023-03-07T05:42:47.971Z,99492.53
2023-03-07T05:47:51.868Z,99477.75
2023-03-07T05:52:54.704Z,99499.06
2023-03-07T05:57:59.743Z,99505.00
2023-03-07T06:03:05.521Z,99505.25
2023-03-07T06:08:18.353Z,99525.34
2023-03-07T06:13:24.895Z,99513.06
2023-03-07T06:18:27.827Z,99527.91
2023-03-07T06:23:32.350Z,99523.41
2023-03-07T06:28:36.286Z,99549.69
2023-03-07T06:33:39.433Z,99547.25
2023-03-07T06:38:42.651Z,99573.22
2023-03-07T06:43:45.497Z,99550.13
2023-03-07T06:48:48.640Z,99587.69
2023-03-07T06:53:53.801Z,99588.19
2023-03-07T06:58:56.556Z,99606.34
2023-03-07T07:04:01.143Z,99610.09
2023-03-07T07:09:05.986Z,99612.81
2023-03-07T07:14:12.393Z,99607.97
2023-03-07T07:19:16.955Z,99628.09
2023-03-07T07:24:20.096Z,99605.63
2023-03-07T07:29:23.668Z,99662.00
2023-03-07T07:34:27.458Z,99656.34
2023-03-07T07:39:30.401Z,99667.53
2023-03-07T07:44:33.286Z,99663.59
2023-03-07T07:49:40.906Z,99666.44
2023-03-07T07:54:43.765Z,99670.47
2023-03-07T07:59:46.782Z,99680.09
2023-03-07T08:04:49.716Z,99676.31
2023-03-07T08:09:52.486Z,99695.44
2023-03-07T08:14:55.177Z,99699.59
2023-03-07T08:20:01.917Z,99708.34
2023-03-07T08:25:11.343Z,99727.94
2023-03-07T08:30:15.762Z,99745.69
2023-03-07T08:35:19.137Z,99737.66
2023-03-07T08:40:22.975Z,99756.00
2023-03-07T08:45:25.719Z,99755.72
2023-03-07T08:50:29.258Z,99750.56
2023-03-07T08:55:35.754Z,99773.53
2023-03-07T09:00:39.211Z,99775.25
2023-03-07T09:05:41.873Z,99771.41
2023-03-07T09:10:44.709Z,99807.97
2023-03-07T09:15:47.511Z,99815.19
2023-03-07T09:20:50.202Z,99830.81
2023-03-07T09:25:52.915Z,99824.28
2023-03-07T09:30:55.582Z,99826.13
2023-03-07T09:35:58.375Z,99836.66
2023-03-07T09:41:19.571Z,99845.81
2023-03-07T09:46:31.113Z,99850.66
2023-03-07T09:51:33.892Z,99849.25
2023-03-07T09:56:41.600Z,99875.44
2023-03-07T10:01:45.153Z,99883.38
2023-03-07T10:06:53.576Z,99881.34
2023-03-07T10:12:11.878Z,99895.41
2023-03-07T10:17:42.840Z,99904.75
2023-03-07T10:22:54.466Z,99904.38
2023-03-07T10:28:15.945Z,99939.06
2023-03-07T10:33:20.508Z,99925.13
2023-03-07T10:38:31.270Z,99936.38
2023-03-07T10:43:35.209Z,99952.16
2023-03-07T10:48:40.556Z,99956.47
2023-03-07T10:53:43.436Z,99958.88
2023-03-07T10:59:05.775Z,99964.66
2023-03-07T11:04:24.089Z,99959.47
2023-03-07T11:09:34.647Z,99972.66
2023-03-07T11:14:47.960Z,99949.84
2023-03-07T11:19:55.860Z,99994.38
2023-03-07T11:24:58.612Z,99985.69
2023-03-07T11:30:39.021Z,99997.97
2023-03-07T11:35:55.979Z,100006.47
2023-03-07T11:41:20.583Z,100007.53
2023-03-07T11:46:53.226Z,100050.00
2023-03-07T11:52:17.927Z,100039.41
2023-03-07T11:57:58.953Z,100056.56
2023-03-07T12:03:16.823Z,100070.03
2023-03-07T12:08:38.161Z,100067.22
2023-03-07T12:13:47.079Z,100068.84
2023-03-07T12:18:58.418Z,100074.78
2023-03-07T12:24:05.566Z,100085.50
2023-03-07T12:29:38.166Z,100087.03
2023-03-07T12:35:17.054Z,100097.31
2023-03-07T12:40:49.382Z,100098.84
2023-03-07T12:46:02.715Z,100106.63
2023-03-07T12:51:07.718Z,100118.59
2023-03-07T12:56:20.278Z,100109.47
2023-03-07T13:01:34.661Z,100110.13
2023-03-07T13:06:45.060Z,100095.66
2023-03-07T13:12:24.255Z,100109.78
2023-03-07T13:17:35.678Z,100095.41
2023-03-07T13:22:38.341Z,100085.81
2023-03-07T13:27:41.007Z,100082.00
2023-03-07T13:32:50.288Z,100080.50
2023-03-07T13:38:04.151Z,100075.69
2023-03-07T13:43:28.248Z,100081.09
2023-03-07T13:48:31.254Z,100079.75
2023-03-07T13:53:33.935Z,100075.53
2023-03-07T13:58:40.732Z,100070.19
2023-03-07T14:03:48.423Z,100069.50
2023-03-07T14:08:51.765Z,100066.53
2023-03-07T14:13:54.734Z,100057.72
2023-03-07T14:19:03.732Z,100055.47
2023-03-07T14:24:26.771Z,100048.00
2023-03-07T14:29:31.365Z,100030.53
2023-03-07T14:34:39.853Z,100019.44
2023-03-07T14:40:11.824Z,100018.69
2023-03-07T14:45:36.660Z,100012.72
2023-03-07T14:50:44.445Z,99965.44
2023-03-07T14:55:49.651Z,99993.38
2023-03-07T15:01:07.608Z,99977.59
2023-03-07T15:06:20.854Z,99960.94
2023-03-07T15:11:45.529Z,99936.50
2023-03-07T15:16:54.622Z,99927.81
2023-03-07T15:22:00.204Z,99925.97
2023-03-07T15:27:04.844Z,99917.38
2023-03-07T15:32:25.461Z,99913.56
2023-03-07T15:37:31.745Z,99891.31
2023-03-07T15:42:48.512Z,99880.66
2023-03-07T15:47:52.231Z,99869.91
2023-03-07T15:53:09.471Z,99856.69
2023-03-07T15:58:17.260Z,99853.44
2023-03-07T16:03:29.826Z,99834.09
2023-03-07T16:08:32.641Z,99818.69
2023-03-07T16:13:44.502Z,99806.97
2023-03-07T16:18:47.569Z,99799.56
2023-03-07T16:23:51.245Z,99789.38
2023-03-07T16:28:54.534Z,99798.41
2023-03-07T16:33:58.170Z,99762.91
2023-03-07T16:39:00.917Z,99777.34
2023-03-07T16:44:03.735Z,99765.94
2023-03-07T16:49:06.570Z,99770.31
2023-03-07T16:54:09.240Z,99756.72
2023-03-07T16:59:16.508Z,99748.91
2023-03-07T17:04:19.151Z,99731.13
2023-03-07T17:09:22.006Z,99716.81
2023-03-07T17:14:25.015Z,99704.22
2023-03-07T17:19:30.130Z,99702.16
2023-03-07T17:24:32.749Z,99676.78
2023-03-07T17:29:44.317Z,99661.69
2023-03-07T17:34:47.242Z,99658.09
2023-03-07T17:39:50.012Z,99656.97
2023-03-07T17:44:52.819Z,99655.88
2023-03-07T17:49:56.502Z,99652.28
2023-03-07T17:54:59.561Z,99661.91
2023-03-07T18:00:02.215Z,99655.19
2023-03-07T18:05:14.981Z,99658.84
2023-03-07T18:10:18.001Z,99628.88
2023-03-07T18:15:22.393Z,99613.72
2023-03-07T18:20:25.795Z,99597.22
2023-03-07T18:25:28.557Z,99574.31
2023-03-07T18:30:31.291Z,99551.28
2023-03-07T18:35:37.256Z,99513.91
2023-03-07T18:40:39.907Z,99496.72
2023-03-07T18:45:44.062Z,99484.34
2023-03-07T18:50:59.561Z,99476.56
2023-03-07T18:56:07.304Z,99444.56
2023-03-07T19:01:17.383Z,99408.16
2023-03-07T19:06:22.147Z,99383.53
2023-03-07T19:11:24.840Z,99352.28
2023-03-07T19:16:28.666Z,99337.56
2023-03-07T19:21:31.579Z,99301.78
2023-03-07T19:26:34.440Z,99270.25
2023-03-07T19:31:37.222Z,99245.69
2023-03-07T19:36:41.839Z,99236.78
2023-03-07T19:41:48.206Z,99222.19
2023-03-07T19:46:51.123Z,99198.50
2023-03-07T19:51:53.886Z,99165.56
2023-03-07T19:56:56.610Z,99136.38
2023-03-07T20:01:59.252Z,99108.44
2023-03-07T20:07:02.017Z,99085.19
2023-03-07T20:12:05.165Z,99053.69
2023-03-07T20:17:07.820Z,99015.00
2023-03-07T20:22:10.477Z,98960.66
2023-03-07T20:27:14.150Z,98932.50
2023-03-07T20:32:17.289Z,98900.88
2023-03-07T20:37:20.334Z,98873.06
2023-03-07T20:42:23.110Z,98843.28
2023-03-07T20:47:25.852Z,98828.44
2023-03-07T20:52:28.662Z,98806.56
2023-03-07T20:57:31.468Z,98773.72
2023-03-07T21:02:34.165Z,98745.59
2023-03-07T21:07:36.882Z,98710.00
2023-03-07T21:12:39.587Z,98683.34
2023-03-07T21:17:42.354Z,98662.63
2023-03-07T21:22:45.809Z,98644.53
2023-03-07T21:27:48.460Z,98609.69
2023-03-07T21:32:51.076Z,98574.31
2023-03-07T21:37:53.758Z,98557.34
2023-03-07T21:42:56.659Z,98535.78
2023-03-07T21:47:59.339Z,98502.66
2023-03-07T21:53:02.019Z,98447.00
2023-03-07T21:58:05.453Z,98436.13
2023-03-07T22:03:08.159Z,98442.25
2023-03-07T22:08:11.652Z,98454.94
2023-03-07T22:13:14.270Z,98435.47
2023-03-07T22:18:17.954Z,98446.53
2023-03-07T22:23:20.560Z,98430.97
2023-03-07T22:28:23.397Z,98405.88
2023-03-07T22:33:26.064Z,98379.69
2023-03-07T22:38:29.484Z,98365.09
2023-03-07T22:43:36.529Z,98319.06
2023-03-07T22:48:39.329Z,98290.81
2023-03-07T22:53:42.194Z,98263.97
2023-03-07T22:58:45.417Z,98246.47
2023-03-07T23:03:49.797Z,98230.22
2023-03-07T23:08:53.411Z,98206.84
2023-03-07T23:13:56.342Z,98176.88
2023-03-07T23:18:59.900Z,98167.09
2023-03-07T23:24:04.083Z,98135.66
2023-03-07T23:29:10.269Z,98102.38
2023-03-07T23:34:18.512Z,98069.03
2023-03-07T23:39:21.331Z,98038.94
2023-03-07T23:44:24.054Z,98018.16
2023-03-07T23:49:26.641Z,98001.56
2023-03-07T23:54:29.282Z,97962.44
2023-03-07T23:59:31.935Z,97959.25
